sensor_id;sensor_type;location;lat;lon;timestamp;pressure;altitude;pressure_sealevel;temperature;humidity
18697;BME280;22617;43.690;27.956;2023-08-12T00:01:36;99201.03;;;19.26;68.74
18697;BME280;22617;43.690;27.956;2023-08-12T00:06:40;99192.56;;;19.16;67.92
18697;BME280;22617;43.690;27.956;2023-08-12T00:11:43;99184.34;;;19.24;68.25
18697;BME280;22617;43.690;27.956;2023-08-12T00:16:48;99188.28;;;19.37;68.67
18697;BME280;22617;43.690;27.956;2023-08-12T00:21:52;99187.84;;;19.49;68.47
18697;BME280;22617;43.690;27.956;2023-08-12T00:26:55;99187.13;;;19.45;68.74
18697;BME280;22617;43.690;27.956;2023-08-12T00:32:00;99186.66;;;19.57;68.66
18697;BME280;22617;43.690;27.956;2023-08-12T00:37:04;99187.34;;;19.63;68.36
18697;BME280;22617;43.690;27.956;2023-08-12T00:42:07;99185.69;;;19.60;68.00
18697;BME280;22617;43.690;27.956;2023-08-12T00:47:13;99184.25;;;19.51;68.20
18697;BME280;22617;43.690;27.956;2023-08-12T00:52:17;99196.97;;;19.40;68.60
18697;BME280;22617;43.690;27.956;2023-08-12T00:57:21;99191.31;;;19.26;69.33
18697;BME280;22617;43.690;27.956;2023-08-12T01:02:26;99204.78;;;19.18;69.19
18697;BME280;22617;43.690;27.956;2023-08-12T01:07:30;99197.72;;;19.19;69.92
18697;BME280;22617;43.690;27.956;2023-08-12T01:12:37;99199.50;;;19.18;70.32
18697;BME280;22617;43.690;27.956;2023-08-12T01:17:46;99204.13;;;19.13;70.66
18697;BME280;22617;43.690;27.956;2023-08-12T01:22:57;99193.97;;;19.01;71.59
18697;BME280;22617;43.690;27.956;2023-08-12T01:28:02;99194.31;;;18.91;72.46
18697;BME280;22617;43.690;27.956;2023-08-12T01:33:09;99193.69;;;19.09;71.75
18697;BME280;22617;43.690;27.956;2023-08-12T01:38:13;99197.81;;;19.17;71.50
18697;BME280;22617;43.690;27.956;2023-08-12T01:43:19;99196.47;;;19.04;71.64
18697;BME280;22617;43.690;27.956;2023-08-12T01:48:23;99192.03;;;18.80;72.84
18697;BME280;22617;43.690;27.956;2023-08-12T01:53:26;99197.72;;;18.69;73.50
18697;BME280;22617;43.690;27.956;2023-08-12T01:58:32;99197.50;;;18.76;73.57
18697;BME280;22617;43.690;27.956;2023-08-12T02:03:35;99191.44;;;18.72;73.07
18697;BME280;22617;43.690;27.956;2023-08-12T02:08:41;99198.63;;;18.68;73.41
18697;BME280;22617;43.690;27.956;2023-08-12T02:13:46;99194.28;;;18.66;74.00
18697;BME280;22617;43.690;27.956;2023-08-12T02:18:50;99211.59;;;18.48;73.37
18697;BME280;22617;43.690;27.956;2023-08-12T02:23:53;99219.19;;;18.59;73.70
18697;BME280;22617;43.690;27.956;2023-08-12T02:28:58;99212.53;;;18.73;73.44
18697;BME280;22617;43.690;27.956;2023-08-12T02:34:02;99221.78;;;18.60;73.54
18697;BME280;22617;43.690;27.956;2023-08-12T02:39:06;99217.72;;;18.49;73.72
18697;BME280;22617;43.690;27.956;2023-08-12T02:44:10;99223.31;;;18.40;74.10
18697;BME280;22617;43.690;27.956;2023-08-12T02:49:14;99229.16;;;18.21;74.59
18697;BME280;22617;43.690;27.956;2023-08-12T02:54:18;99231.06;;;18.44;74.03
18697;BME280;22617;43.690;27.956;2023-08-12T02:59:23;99239.06;;;18.13;74.68
18697;BME280;22617;43.690;27.956;2023-08-12T03:04:28;99239.66;;;17.95;76.81
18697;BME280;22617;43.690;27.956;2023-08-12T03:09:32;99240.53;;;17.94;77.74
18697;BME280;22617;43.690;27.956;2023-08-12T03:14:37;99230.44;;;18.08;77.10
18697;BME280;22617;43.690;27.956;2023-08-12T03:19:41;99227.72;;;18.11;75.74
18697;BME280;22617;43.690;27.956;2023-08-12T03:24:45;99238.19;;;18.14;76.50
18697;BME280;22617;43.690;27.956;2023-08-12T03:29:50;99235.34;;;17.93;76.78
18697;BME280;22617;43.690;27.956;2023-08-12T03:34:55;99236.34;;;17.89;78.59
18697;BME280;22617;43.690;27.956;2023-08-12T03:39:59;99245.78;;;17.96;78.69
18697;BME280;22617;43.690;27.956;2023-08-12T03:45:08;99246.38;;;18.05;78.61
18697;BME280;22617;43.690;27.956;2023-08-12T03:50:12;99233.75;;;18.15;78.50
18697;BME280;22617;43.690;27.956;2023-08-12T03:55:16;99246.91;;;18.16;78.42
18697;BME280;22617;43.690;27.956;2023-08-12T04:00:21;99247.66;;;18.21;78.54
18697;BME280;22617;43.690;27.956;2023-08-12T04:05:29;99240.19;;;18.34;78.24
18697;BME280;22617;43.690;27.956;2023-08-12T04:10:33;99250.66;;;18.37;78.35
18697;BME280;22617;43.690;27.956;2023-08-12T04:15:37;99252.78;;;18.54;78.19
18697;BME280;22617;43.690;27.956;2023-08-12T04:20:41;99247.88;;;18.69;77.24
18697;BME280;22617;43.690;27.956;2023-08-12T04:25:45;99249.31;;;18.80;77.24
18697;BME280;22617;43.690;27.956;2023-08-12T04:30:51;99241.16;;;18.86;76.90
18697;BME280;22617;43.690;27.956;2023-08-12T04:35:56;99255.00;;;18.94;76.63
18697;BME280;22617;43.690;27.956;2023-08-12T04:41:00;99251.03;;;19.07;76.14
18697;BME280;22617;43.690;27.956;2023-08-12T04:46:06;99255.88;;;19.19;76.44
18697;BME280;22617;43.690;27.956;2023-08-12T04:51:11;99259.72;;;19.35;75.33
18697;BME280;22617;43.690;27.956;2023-08-12T04:56:14;99263.47;;;19.54;75.50
18697;BME280;22617;43.690;27.956;2023-08-12T05:01:21;99255.94;;;19.67;75.93
18697;BME280;22617;43.690;27.956;2023-08-12T05:06:26;99263.88;;;19.90;74.82
18697;BME280;22617;43.690;27.956;2023-08-12T05:11:31;99261.34;;;20.11;73.61
18697;BME280;22617;43.690;27.956;2023-08-12T05:16:36;99260.88;;;20.23;72.86
18697;BME280;22617;43.690;27.956;2023-08-12T05:21:40;99256.84;;;20.36;72.55
18697;BME280;22617;43.690;27.956;2023-08-12T05:26:44;99260.25;;;20.61;71.86
18697;BME280;22617;43.690;27.956;2023-08-12T05:31:48;99246.31;;;20.78;71.24
18697;BME280;22617;43.690;27.956;2023-08-12T05:36:52;99254.09;;;21.03;70.57
18697;BME280;22617;43.690;27.956;2023-08-12T05:41:56;99259.06;;;21.32;68.89
18697;BME280;22617;43.690;27.956;2023-08-12T05:47:00;99264.25;;;21.54;68.24
18697;BME280;22617;43.690;27.956;2023-08-12T05:52:04;99263.38;;;21.73;67.69
18697;BME280;22617;43.690;27.956;2023-08-12T05:57:08;99264.19;;;21.96;67.85
18697;BME280;22617;43.690;27.956;2023-08-12T06:02:13;99264.41;;;22.10;64.86
18697;BME280;22617;43.690;27.956;2023-08-12T06:07:17;99264.38;;;22.29;65.31
18697;BME280;22617;43.690;27.956;2023-08-12T06:12:21;99270.31;;;22.52;65.52
18697;BME280;22617;43.690;27.956;2023-08-12T06:17:25;99259.31;;;22.60;64.78
18697;BME280;22617;43.690;27.956;2023-08-12T06:22:29;99256.28;;;22.86;64.55
18697;BME280;22617;43.690;27.956;2023-08-12T06:27:33;99260.38;;;23.11;63.11
18697;BME280;22617;43.690;27.956;2023-08-12T06:32:38;99264.19;;;23.39;62.30
18697;BME280;22617;43.690;27.956;2023-08-12T06:37:41;99274.66;;;23.60;61.35
18697;BME280;22617;43.690;27.956;2023-08-12T06:42:45;99262.72;;;23.84;60.01
18697;BME280;22617;43.690;27.956;2023-08-12T06:47:50;99269.38;;;24.08;59.77
18697;BME280;22617;43.690;27.956;2023-08-12T06:52:54;99268.91;;;24.33;59.12
18697;BME280;22617;43.690;27.956;2023-08-12T06:57:57;99267.97;;;24.65;58.93
18697;BME280;22617;43.690;27.956;2023-08-12T07:03:02;99271.28;;;24.85;58.32
18697;BME280;22617;43.690;27.956;2023-08-12T07:08:06;99266.28;;;25.10;55.67
18697;BME280;22617;43.690;27.956;2023-08-12T07:13:10;99268.63;;;25.30;56.69
18697;BME280;22617;43.690;27.956;2023-08-12T07:18:15;99260.00;;;25.41;54.91
18697;BME280;22617;43.690;27.956;2023-08-12T07:23:20;99267.00;;;25.86;53.96
18697;BME280;22617;43.690;27.956;2023-08-12T07:28:23;99262.34;;;25.89;54.24
18697;BME280;22617;43.690;27.956;2023-08-12T07:33:28;99265.47;;;26.38;54.89
18697;BME280;22617;43.690;27.956;2023-08-12T07:38:32;99264.31;;;26.57;52.86
18697;BME280;22617;43.690;27.956;2023-08-12T07:43:37;99268.09;;;26.53;52.58
18697;BME280;22617;43.690;27.956;2023-08-12T07:48:41;99261.13;;;26.64;51.71
18697;BME280;22617;43.690;27.956;2023-08-12T07:53:45;99258.28;;;26.94;50.84
18697;BME280;22617;43.690;27.956;2023-08-12T07:58:48;99260.34;;;27.16;49.67
18697;BME280;22617;43.690;27.956;2023-08-12T08:03:53;99257.81;;;27.27;49.02
18697;BME280;22617;43.690;27.956;2023-08-12T08:08:57;99259.78;;;27.50;48.44
18697;BME280;22617;43.690;27.956;2023-08-12T08:14:03;99254.75;;;27.84;47.83
18697;BME280;22617;43.690;27.956;2023-08-12T08:19:08;99251.56;;;27.91;48.04
18697;BME280;22617;43.690;27.956;2023-08-12T08:24:15;99254.84;;;27.82;46.32
18697;BME280;22617;43.690;27.956;2023-08-12T08:29:18;99241.47;;;28.20;46.03
18697;BME280;22617;43.690;27.956;2023-08-12T08:34:23;99249.03;;;28.63;45.59
18697;BME280;22617;43.690;27.956;2023-08-12T08:39:27;99251.06;;;28.72;44.62
18697;BME280;22617;43.690;27.956;2023-08-12T08:44:33;99246.50;;;28.85;45.14
18697;BME280;22617;43.690;27.956;2023-08-12T08:49:38;99239.47;;;28.95;44.80
18697;BME280;22617;43.690;27.956;2023-08-12T08:54:42;99241.84;;;29.45;43.61
18697;BME280;22617;43.690;27.956;2023-08-12T08:59:47;99229.94;;;29.72;45.73
18697;BME280;22617;43.690;27.956;2023-08-12T09:05:01;99233.84;;;29.68;43.08
18697;BME280;22617;43.690;27.956;2023-08-12T09:10:06;99240.91;;;29.80;43.33
18697;BME280;22617;43.690;27.956;2023-08-12T09:15:11;99227.75;;;30.21;44.13
18697;BME280;22617;43.690;27.956;2023-08-12T09:20:16;99223.69;;;30.38;44.06
18697;BME280;22617;43.690;27.956;2023-08-12T09:25:20;99226.09;;;29.41;44.11
18697;BME280;22617;43.690;27.956;2023-08-12T09:30:24;99224.88;;;29.34;43.63
18697;BME280;22617;43.690;27.956;2023-08-12T09:35:34;99215.78;;;30.25;44.48
18697;BME280;22617;43.690;27.956;2023-08-12T09:40:38;99217.22;;;30.29;42.32
18697;BME280;22617;43.690;27.956;2023-08-12T09:45:44;99211.78;;;30.63;43.18
18697;BME280;22617;43.690;27.956;2023-08-12T09:50:49;99197.97;;;30.56;42.75
18697;BME280;22617;43.690;27.956;2023-08-12T09:55:54;99207.03;;;30.55;40.98
18697;BME280;22617;43.690;27.956;2023-08-12T10:00:58;99199.91;;;30.65;40.98
18697;BME280;22617;43.690;27.956;2023-08-12T10:06:05;99189.03;;;31.61;42.15
18697;BME280;22617;43.690;27.956;2023-08-12T10:11:10;99199.16;;;31.06;42.26
18697;BME280;22617;43.690;27.956;2023-08-12T10:16:15;99198.03;;;30.23;41.71
18697;BME280;22617;43.690;27.956;2023-08-12T10:21:20;99190.84;;;30.98;41.42
18697;BME280;22617;43.690;27.956;2023-08-12T10:26:25;99189.59;;;31.95;40.22
18697;BME280;22617;43.690;27.956;2023-08-12T10:31:29;99181.66;;;31.93;38.73
18697;BME280;22617;43.690;27.956;2023-08-12T10:36:41;99171.66;;;32.15;41.10
18697;BME280;22617;43.690;27.956;2023-08-12T10:42:03;99167.16;;;32.34;38.88
18697;BME280;22617;43.690;27.956;2023-08-12T10:47:08;99174.97;;;31.57;39.64
18697;BME280;22617;43.690;27.956;2023-08-12T10:52:29;99159.19;;;29.82;41.64
18697;BME280;22617;43.690;27.956;2023-08-12T10:57:36;99155.59;;;29.15;43.72
18697;BME280;22617;43.690;27.956;2023-08-12T11:02:44;99153.59;;;30.83;42.39
18697;BME280;22617;43.690;27.956;2023-08-12T11:07:56;99152.38;;;31.79;41.08
18697;BME280;22617;43.690;27.956;2023-08-12T11:13:04;99153.16;;;30.23;41.74
18697;BME280;22617;43.690;27.956;2023-08-12T11:18:10;99147.34;;;29.52;43.46
18697;BME280;22617;43.690;27.956;2023-08-12T11:23:16;99148.25;;;29.06;43.21
18697;BME280;22617;43.690;27.956;2023-08-12T11:28:23;99140.13;;;28.84;44.39
18697;BME280;22617;43.690;27.956;2023-08-12T11:33:27;99132.69;;;30.75;40.95
18697;BME280;22617;43.690;27.956;2023-08-12T11:38:33;99143.06;;;31.42;41.33
18697;BME280;22617;43.690;27.956;2023-08-12T11:43:36;99136.59;;;29.96;40.60
18697;BME280;22617;43.690;27.956;2023-08-12T11:48:40;99136.22;;;29.45;41.02
18697;BME280;22617;43.690;27.956;2023-08-12T11:53:45;99143.56;;;30.42;42.82
18697;BME280;22617;43.690;27.956;2023-08-12T11:58:49;99124.84;;;31.04;42.47
18697;BME280;22617;43.690;27.956;2023-08-12T12:03:54;99125.41;;;30.66;41.42
18697;BME280;22617;43.690;27.956;2023-08-12T12:09:04;99113.34;;;31.53;39.89
18697;BME280;22617;43.690;27.956;2023-08-12T12:14:09;99106.66;;;32.18;38.02
18697;BME280;22617;43.690;27.956;2023-08-12T12:19:15;99118.03;;;31.51;37.96
18697;BME280;22617;43.690;27.956;2023-08-12T12:24:21;99114.06;;;31.04;39.34
18697;BME280;22617;43.690;27.956;2023-08-12T12:29:24;99111.16;;;30.96;40.85
18697;BME280;22617;43.690;27.956;2023-08-12T12:34:28;99098.88;;;31.84;40.67
18697;BME280;22617;43.690;27.956;2023-08-12T12:39:33;99098.28;;;32.40;38.53
18697;BME280;22617;43.690;27.956;2023-08-12T12:44:37;99094.81;;;31.08;40.29
18697;BME280;22617;43.690;27.956;2023-08-12T12:49:41;99094.75;;;30.14;40.55
18697;BME280;22617;43.690;27.956;2023-08-12T12:54:46;99084.31;;;29.89;40.40
18697;BME280;22617;43.690;27.956;2023-08-12T12:59:50;99084.69;;;30.27;41.29
18697;BME280;22617;43.690;27.956;2023-08-12T13:04:53;99080.38;;;30.68;41.03
18697;BME280;22617;43.690;27.956;2023-08-12T13:09:59;99083.59;;;30.83;40.39
18697;BME280;22617;43.690;27.956;2023-08-12T13:15:03;99081.47;;;30.33;41.42
18697;BME280;22617;43.690;27.956;2023-08-12T13:20:08;99083.00;;;29.39;42.31
18697;BME280;22617;43.690;27.956;2023-08-12T13:25:13;99080.28;;;29.06;43.01
18697;BME280;22617;43.690;27.956;2023-08-12T13:30:16;99090.34;;;28.80;43.54
18697;BME280;22617;43.690;27.956;2023-08-12T13:35:20;99086.63;;;29.27;42.65
18697;BME280;22617;43.690;27.956;2023-08-12T13:40:25;99081.97;;;28.95;42.58
18697;BME280;22617;43.690;27.956;2023-08-12T13:45:29;99090.81;;;28.50;43.53
18697;BME280;22617;43.690;27.956;2023-08-12T13:50:33;99096.44;;;28.23;44.78
18697;BME280;22617;43.690;27.956;2023-08-12T13:55:38;99090.56;;;28.42;44.29
18697;BME280;22617;43.690;27.956;2023-08-12T14:00:41;99092.28;;;28.19;44.23
18697;BME280;22617;43.690;27.956;2023-08-12T14:05:45;99102.38;;;28.74;43.70
18697;BME280;22617;43.690;27.956;2023-08-12T14:10:50;99107.94;;;28.36;44.35
18697;BME280;22617;43.690;27.956;2023-08-12T14:15:54;99109.22;;;28.43;44.02
18697;BME280;22617;43.690;27.956;2023-08-12T14:20:57;99114.09;;;28.49;44.26
18697;BME280;22617;43.690;27.956;2023-08-12T14:26:02;99112.50;;;27.99;44.36
18697;BME280;22617;43.690;27.956;2023-08-12T14:31:05;99112.13;;;27.80;44.49
18697;BME280;22617;43.690;27.956;2023-08-12T14:36:09;99116.13;;;27.62;44.64
18697;BME280;22617;43.690;27.956;2023-08-12T14:41:14;99106.16;;;27.64;44.86
18697;BME280;22617;43.690;27.956;2023-08-12T14:46:18;99106.75;;;27.80;45.66
18697;BME280;22617;43.690;27.956;2023-08-12T14:51:22;99110.06;;;27.84;45.16
18697;BME280;22617;43.690;27.956;2023-08-12T14:56:26;99109.38;;;27.56;45.48
18697;BME280;22617;43.690;27.956;2023-08-12T15:01:30;99110.44;;;27.54;45.00
18697;BME280;22617;43.690;27.956;2023-08-12T15:06:33;99103.59;;;27.37;45.33
18697;BME280;22617;43.690;27.956;2023-08-12T15:11:38;99117.41;;;27.31;46.10
18697;BME280;22617;43.690;27.956;2023-08-12T15:16:42;99116.56;;;27.18;45.84
18697;BME280;22617;43.690;27.956;2023-08-12T15:21:45;99121.16;;;27.03;45.64
18697;BME280;22617;43.690;27.956;2023-08-12T15:26:52;99126.03;;;26.84;45.50
18697;BME280;22617;43.690;27.956;2023-08-12T15:31:55;99131.91;;;26.76;45.83
18697;BME280;22617;43.690;27.956;2023-08-12T15:36:59;99133.84;;;26.74;45.65
18697;BME280;22617;43.690;27.956;2023-08-12T15:42:05;99135.34;;;26.78;45.87
18697;BME280;22617;43.690;27.956;2023-08-12T15:47:11;99137.22;;;26.64;45.67
18697;BME280;22617;43.690;27.956;2023-08-12T15:52:15;99132.41;;;26.56;45.88
18697;BME280;22617;43.690;27.956;2023-08-12T15:57:20;99134.47;;;26.38;45.94
18697;BME280;22617;43.690;27.956;2023-08-12T16:02:24;99132.13;;;26.20;46.25
18697;BME280;22617;43.690;27.956;2023-08-12T16:07:27;99138.06;;;26.11;46.06
18697;BME280;22617;43.690;27.956;2023-08-12T16:12:34;99139.25;;;26.07;46.53
18697;BME280;22617;43.690;27.956;2023-08-12T16:17:37;99143.66;;;25.93;47.04
18697;BME280;22617;43.690;27.956;2023-08-12T16:22:41;99145.00;;;25.86;47.42
18697;BME280;22617;43.690;27.956;2023-08-12T16:27:46;99145.22;;;25.69;48.09
18697;BME280;22617;43.690;27.956;2023-08-12T16:32:49;99158.31;;;25.59;48.25
18697;BME280;22617;43.690;27.956;2023-08-12T16:37:53;99168.28;;;25.42;49.01
18697;BME280;22617;43.690;27.956;2023-08-12T16:42:58;99160.16;;;25.29;49.79
18697;BME280;22617;43.690;27.956;2023-08-12T16:48:02;99164.75;;;25.13;50.77
18697;BME280;22617;43.690;27.956;2023-08-12T16:53:06;99175.63;;;24.94;51.26
18697;BME280;22617;43.690;27.956;2023-08-12T16:58:13;99176.03;;;24.88;51.62
18697;BME280;22617;43.690;27.956;2023-08-12T17:03:17;99163.03;;;24.66;52.54
18697;BME280;22617;43.690;27.956;2023-08-12T17:08:20;99171.09;;;24.51;53.44
18697;BME280;22617;43.690;27.956;2023-08-12T17:13:25;99171.38;;;24.30;53.93
18697;BME280;22617;43.690;27.956;2023-08-12T17:18:29;99180.06;;;24.18;54.59
18697;BME280;22617;43.690;27.956;2023-08-12T17:23:32;99181.25;;;23.97;55.58
18697;BME280;22617;43.690;27.956;2023-08-12T17:28:37;99178.75;;;23.78;56.00
18697;BME280;22617;43.690;27.956;2023-08-12T17:33:41;99191.84;;;23.66;56.47
18697;BME280;22617;43.690;27.956;2023-08-12T17:38:44;99201.13;;;23.59;57.13
18697;BME280;22617;43.690;27.956;2023-08-12T17:43:49;99198.09;;;23.49;57.08
18697;BME280;22617;43.690;27.956;2023-08-12T17:48:53;99207.63;;;23.19;57.87
18697;BME280;22617;43.690;27.956;2023-08-12T17:53:56;99207.97;;;22.95;58.64
18697;BME280;22617;43.690;27.956;2023-08-12T17:59:01;99205.84;;;22.85;58.81
18697;BME280;22617;43.690;27.956;2023-08-12T18:04:06;99211.88;;;22.70;59.25
18697;BME280;22617;43.690;27.956;2023-08-12T18:09:09;99222.69;;;22.67;59.65
18697;BME280;22617;43.690;27.956;2023-08-12T18:14:14;99217.03;;;22.55;60.30
18697;BME280;22617;43.690;27.956;2023-08-12T18:19:18;99223.94;;;22.41;60.47
18697;BME280;22617;43.690;27.956;2023-08-12T18:24:22;99222.78;;;22.46;60.94
18697;BME280;22617;43.690;27.956;2023-08-12T18:29:27;99230.41;;;22.35;60.79
18697;BME280;22617;43.690;27.956;2023-08-12T18:34:31;99219.66;;;22.38;60.62
18697;BME280;22617;43.690;27.956;2023-08-12T18:39:34;99224.84;;;22.23;60.66
18697;BME280;22617;43.690;27.956;2023-08-12T18:44:39;99237.09;;;22.06;61.96
18697;BME280;22617;43.690;27.956;2023-08-12T18:49:43;99231.25;;;21.80;63.22
18697;BME280;22617;43.690;27.956;2023-08-12T18:54:47;99235.75;;;21.77;63.22
18697;BME280;22617;43.690;27.956;2023-08-12T18:59:52;99234.34;;;21.70;63.55
18697;BME280;22617;43.690;27.956;2023-08-12T19:04:57;99233.78;;;21.44;64.32
18697;BME280;22617;43.690;27.956;2023-08-12T19:10:01;99238.66;;;21.34;64.21
18697;BME280;22617;43.690;27.956;2023-08-12T19:15:07;99241.97;;;21.19;64.59
18697;BME280;22617;43.690;27.956;2023-08-12T19:20:11;99240.94;;;21.21;64.39
18697;BME280;22617;43.690;27.956;2023-08-12T19:25:15;99239.00;;;21.05;63.92
18697;BME280;22617;43.690;27.956;2023-08-12T19:30:20;99242.22;;;20.91;64.30
18697;BME280;22617;43.690;27.956;2023-08-12T19:35:24;99237.56;;;20.54;65.91
18697;BME280;22617;43.690;27.956;2023-08-12T19:40:28;99240.84;;;20.61;64.96
18697;BME280;22617;43.690;27.956;2023-08-12T19:45:33;99241.34;;;20.70;64.72
18697;BME280;22617;43.690;27.956;2023-08-12T19:50:36;99246.19;;;20.59;65.06
18697;BME280;22617;43.690;27.956;2023-08-12T19:55:41;99242.63;;;20.38;66.29
18697;BME280;22617;43.690;27.956;2023-08-12T20:00:46;99238.50;;;20.31;65.88
18697;BME280;22617;43.690;27.956;2023-08-12T20:05:49;99239.94;;;20.17;66.39
18697;BME280;22617;43.690;27.956;2023-08-12T20:10:53;99238.84;;;20.22;66.20
18697;BME280;22617;43.690;27.956;2023-08-12T20:15:58;99245.09;;;20.20;65.76
18697;BME280;22617;43.690;27.956;2023-08-12T20:21:02;99244.91;;;20.24;65.71
18697;BME280;22617;43.690;27.956;2023-08-12T20:26:05;99238.09;;;20.19;65.74
18697;BME280;22617;43.690;27.956;2023-08-12T20:31:12;99241.38;;;20.02;65.50
18697;BME280;22617;43.690;27.956;2023-08-12T20:36:16;99238.75;;;19.79;66.00
18697;BME280;22617;43.690;27.956;2023-08-12T20:41:22;99238.03;;;19.75;66.26
18697;BME280;22617;43.690;27.956;2023-08-12T20:46:27;99234.91;;;19.64;66.82
18697;BME280;22617;43.690;27.956;2023-08-12T20:51:31;99225.34;;;19.60;66.97
18697;BME280;22617;43.690;27.956;2023-08-12T20:56:34;99223.97;;;19.50;66.65
18697;BME280;22617;43.690;27.956;2023-08-12T21:01:39;99223.22;;;19.46;67.28
18697;BME280;22617;43.690;27.956;2023-08-12T21:06:43;99216.91;;;19.50;66.53
18697;BME280;22617;43.690;27.956;2023-08-12T21:11:46;99214.38;;;19.23;67.35
18697;BME280;22617;43.690;27.956;2023-08-12T21:16:51;99226.25;;;19.09;67.45
18697;BME280;22617;43.690;27.956;2023-08-12T21:21:55;99226.03;;;19.15;67.25
18697;BME280;22617;43.690;27.956;2023-08-12T21:26:58;99223.72;;;19.06;67.11
18697;BME280;22617;43.690;27.956;2023-08-12T21:32:03;99227.44;;;19.01;67.67
18697;BME280;22617;43.690;27.956;2023-08-12T21:37:07;99232.28;;;18.88;67.58
18697;BME280;22617;43.690;27.956;2023-08-12T21:42:10;99230.56;;;18.87;67.47
18697;BME280;22617;43.690;27.956;2023-08-12T21:47:16;99238.31;;;18.92;67.69
18697;BME280;22617;43.690;27.956;2023-08-12T21:52:19;99237.78;;;18.82;67.99
18697;BME280;22617;43.690;27.956;2023-08-12T21:57:23;99233.47;;;18.80;67.19
18697;BME280;22617;43.690;27.956;2023-08-12T22:02:28;99233.16;;;18.62;68.22
18697;BME280;22617;43.690;27.956;2023-08-12T22:07:32;99227.91;;;18.61;68.59
18697;BME280;22617;43.690;27.956;2023-08-12T22:12:35;99222.75;;;18.58;68.73
18697;BME280;22617;43.690;27.956;2023-08-12T22:17:40;99218.59;;;18.49;68.85
18697;BME280;22617;43.690;27.956;2023-08-12T22:22:44;99220.47;;;18.46;69.05
18697;BME280;22617;43.690;27.956;2023-08-12T22:27:47;99213.63;;;18.40;69.36
18697;BME280;22617;43.690;27.956;2023-08-12T22:32:52;99203.44;;;18.00;69.38
18697;BME280;22617;43.690;27.956;2023-08-12T22:37:56;99204.94;;;18.09;69.22
18697;BME280;22617;43.690;27.956;2023-08-12T22:43:00;99208.78;;;18.26;69.66
18697;BME280;22617;43.690;27.956;2023-08-12T22:48:06;99205.03;;;18.34;69.29
18697;BME280;22617;43.690;27.956;2023-08-12T22:53:09;99199.44;;;18.16;69.87
18697;BME280;22617;43.690;27.956;2023-08-12T22:58:14;99203.88;;;18.14;70.04
18697;BME280;22617;43.690;27.956;2023-08-12T23:03:19;99205.59;;;18.15;69.53
18697;BME280;22617;43.690;27.956;2023-08-12T23:08:23;99203.56;;;17.97;69.72
18697;BME280;22617;43.690;27.956;2023-08-12T23:13:27;99216.09;;;17.89;69.92
18697;BME280;22617;43.690;27.956;2023-08-12T23:18:31;99210.91;;;17.86;69.89
18697;BME280;22617;43.690;27.956;2023-08-12T23:23:35;99207.53;;;17.81;70.00
18697;BME280;22617;43.690;27.956;2023-08-12T23:28:38;99206.53;;;17.85;69.65
18697;BME280;22617;43.690;27.956;2023-08-12T23:33:43;99211.88;;;17.83;70.00
18697;BME280;22617;43.690;27.956;2023-08-12T23:38:47;99211.31;;;17.72;70.56
18697;BME280;22617;43.690;27.956;2023-08-12T23:43:50;99201.78;;;17.68;70.64
18697;BME280;22617;43.690;27.956;2023-08-12T23:48:57;99207.44;;;17.55;70.41
18697;BME280;22617;43.690;27.956;2023-08-12T23:54:00;99211.16;;;17.46;70.62
18697;BME280;22617;43.690;27.956;2023-08-12T23:59:04;99205.72;;;17.52;71.34
